Time;durP1;ratioP1;P1;durP2;ratioP2;P2;SDS_P1;SDS_P2;PMS_P1;PMS_P2;Temp;Humidity;BMP_temperature;BMP_pressure;BME280_temperature;BME280_humidity;BME280_pressure;Samples;Min_cycle;Max_cycle;Signal;HPM_P1;HPM_P2
2022/05/21 00:01:49;;;;;;;11.53;4.60;;;;;;;23.79;43.78;100212.19;20793531;27;98470;-79
2022/05/21 00:11:49;;;;;;;7.13;4.80;;;;;;;23.77;43.75;100200.91;20802271;27;97875;-79
2022/05/21 00:21:50;;;;;;;6.63;4.90;;;;;;;23.81;43.75;100198.81;20800479;27;96965;-78
2022/05/21 00:31:50;;;;;;;7.40;4.55;;;;;;;23.76;43.99;100196.56;20779183;27;97992;-79
2022/05/21 00:41:51;;;;;;;9.73;4.60;;;;;;;23.62;44.54;100179.34;20795772;27;96939;-79
2022/05/21 00:52:00;;;;;;;8.07;5.43;;;;;;;23.60;44.35;100173.34;20794787;27;98225;-79
2022/05/21 01:02:03;;;;;;;10.30;5.30;;;;;;;23.49;44.81;100190.19;20785420;27;97452;-79
2022/05/21 01:12:06;;;;;;;9.07;5.10;;;;;;;23.38;45.10;100198.25;20789461;27;97878;-78
2022/05/21 01:22:07;;;;;;;10.43;5.32;;;;;;;23.33;45.07;100203.13;20764546;27;98688;-79
2022/05/21 01:32:16;;;;;;;6.93;5.60;;;;;;;23.31;45.14;100200.63;20792723;27;99265;-78
2022/05/21 01:42:17;;;;;;;8.27;5.72;;;;;;;23.24;45.39;100182.81;20793390;27;96904;-79
2022/05/21 01:52:18;;;;;;;8.10;5.25;;;;;;;23.25;45.58;100192.41;20771976;27;96945;-78
2022/05/21 02:02:19;;;;;;;7.93;5.15;;;;;;;23.11;45.66;100236.69;20795558;27;97790;-79
2022/05/21 02:12:19;;;;;;;11.82;5.18;;;;;;;23.16;45.80;100294.41;20801035;27;97135;-79
2022/05/21 02:22:20;;;;;;;11.90;5.60;;;;;;;23.12;46.43;100340.53;20797744;27;97826;-78
2022/05/21 02:32:20;;;;;;;10.43;5.63;;;;;;;23.09;46.49;100354.84;20794700;27;97114;-78
2022/05/21 02:52:40;;;;;;;6.18;4.50;;;;;;;23.17;47.27;100378.00;20803666;27;98146;-78
2022/05/21 03:02:41;;;;;;;6.18;3.97;;;;;;;23.17;47.51;100383.28;20784110;27;100801;-78
2022/05/21 03:12:41;;;;;;;8.13;3.38;;;;;;;23.12;47.99;100382.78;20792346;27;97725;-79
2022/05/21 03:22:42;;;;;;;4.57;2.80;;;;;;;23.09;47.97;100383.88;20793773;27;97568;-78
2022/05/21 03:32:43;;;;;;;5.85;2.50;;;;;;;23.13;48.24;100352.75;20795157;27;99610;-78
2022/05/21 03:42:45;;;;;;;2.90;2.20;;;;;;;23.15;48.61;100335.81;20792387;27;97357;-78
2022/05/21 03:52:46;;;;;;;7.37;2.23;;;;;;;23.18;48.95;100314.47;20785284;27;97941;-78
2022/05/21 04:02:47;;;;;;;4.35;2.08;;;;;;;23.23;49.20;100292.94;20771230;27;100145;-77
2022/05/21 04:12:48;;;;;;;8.85;2.30;;;;;;;23.39;48.96;100226.34;20773611;27;99119;-77
2022/05/21 04:22:49;;;;;;;6.75;2.10;;;;;;;23.49;49.19;100236.94;20773615;27;100059;-77
2022/05/21 04:32:50;;;;;;;11.90;2.20;;;;;;;23.56;48.24;100231.91;20817995;27;97612;-78
2022/05/21 04:42:50;;;;;;;9.77;1.95;;;;;;;23.62;47.59;100210.22;20802842;27;97280;-78
2022/05/21 04:52:51;;;;;;;4.18;1.90;;;;;;;23.67;46.95;100208.84;20813613;27;100960;-77
2022/05/21 05:02:51;;;;;;;3.17;1.92;;;;;;;23.75;46.93;100315.69;20811900;27;101864;-78
2022/05/21 05:12:52;;;;;;;5.75;2.00;;;;;;;23.77;46.57;100327.81;20780770;27;97258;-77
2022/05/21 05:22:53;;;;;;;2.17;1.77;;;;;;;23.81;46.26;100333.66;20816430;27;98225;-77
2022/05/21 05:32:54;;;;;;;3.95;1.70;;;;;;;23.81;46.08;100334.50;20814606;27;96800;-77
2022/05/21 05:42:56;;;;;;;5.25;1.60;;;;;;;23.83;45.75;100339.66;20818392;27;97379;-78
2022/05/21 05:53:03;;;;;;;3.00;1.55;;;;;;;23.88;45.46;100310.16;20808763;27;97085;-77
2022/05/21 06:03:04;;;;;;;2.17;1.95;;;;;;;23.87;45.46;100298.72;20799883;27;98611;-77
2022/05/21 06:13:05;;;;;;;2.10;1.40;;;;;;;23.90;45.34;100292.31;20813102;27;100200;-77
2022/05/21 06:23:06;;;;;;;2.73;1.70;;;;;;;23.93;44.95;100300.03;20810943;27;97451;-77
2022/05/21 06:33:17;;;;;;;2.28;1.35;;;;;;;23.94;44.96;100310.44;20812337;27;97027;-77
2022/05/21 06:43:18;;;;;;;3.15;1.80;;;;;;;23.95;44.84;100322.69;20813135;27;97291;-77
2022/05/21 06:53:18;;;;;;;1.63;1.50;;;;;;;23.96;44.74;100312.94;20788883;27;100398;-77
2022/05/21 07:03:18;;;;;;;2.47;1.50;;;;;;;23.97;44.67;100318.13;20806549;27;97853;-77
2022/05/21 07:13:22;;;;;;;1.88;1.52;;;;;;;23.97;44.64;100304.91;20813131;27;97603;-77
2022/05/21 07:23:25;;;;;;;4.30;1.73;;;;;;;23.96;44.54;100312.94;20808756;27;97770;-76
2022/05/21 07:33:25;;;;;;;2.50;1.70;;;;;;;23.98;44.38;100311.00;20805988;27;98126;-78
2022/05/21 07:43:30;;;;;;;1.50;1.40;;;;;;;24.06;44.23;100310.31;20821496;27;97540;-77
2022/05/21 07:53:35;;;;;;;2.47;1.92;;;;;;;24.06;44.32;100310.31;20814296;27;99036;-77
2022/05/21 08:03:36;;;;;;;2.40;1.95;;;;;;;24.09;44.17;100317.97;20809466;27;97289;-78
2022/05/21 08:13:36;;;;;;;2.50;2.30;;;;;;;24.13;43.95;100337.88;20815481;27;100670;-77
2022/05/21 08:33:56;;;;;;;2.67;2.30;;;;;;;24.19;43.95;100341.78;20825405;27;97721;-77
2022/05/21 08:44:02;;;;;;;2.77;2.50;;;;;;;24.19;43.85;100336.47;20811926;27;97641;-78
2022/05/21 08:54:03;;;;;;;3.15;2.72;;;;;;;24.21;43.75;100334.53;20823116;27;97313;-78
2022/05/21 09:04:04;;;;;;;4.50;3.03;;;;;;;24.21;43.69;100332.72;20815710;27;97502;-78
2022/05/21 09:14:14;;;;;;;3.50;3.20;;;;;;;24.24;43.72;100321.88;20816466;27;97706;-78
2022/05/21 09:24:37;;;;;;;5.82;4.40;;;;;;;24.27;43.59;100333.97;20816235;27;100586;-78
2022/05/21 09:34:38;;;;;;;4.60;4.20;;;;;;;24.28;43.50;100330.34;20814324;27;98304;-78
2022/05/21 09:55:19;;;;;;;6.20;4.55;;;;;;;24.31;43.53;100330.06;20818953;27;97286;-78
2022/05/21 10:05:38;;;;;;;6.32;5.35;;;;;;;24.34;43.37;100311.28;20815888;27;97672;-78
2022/05/21 10:15:44;;;;;;;6.07;5.43;;;;;;;24.36;43.40;100321.72;20815582;27;98105;-78
2022/05/21 10:26:19;;;;;;;7.50;6.15;;;;;;;24.40;43.34;100326.59;20808848;27;97185;-78
2022/05/21 10:36:38;;;;;;;6.93;5.65;;;;;;;24.43;43.14;100318.34;20818003;27;99901;-78
2022/05/21 10:47:03;;;;;;;8.70;6.30;;;;;;;24.48;43.03;100340.91;20805320;27;97309;-78
2022/05/21 10:57:32;;;;;;;7.35;5.63;;;;;;;24.52;43.18;100342.28;20815008;27;97697;-78
2022/05/21 11:07:59;;;;;;;7.55;5.57;;;;;;;24.57;43.04;100330.31;20819622;27;97071;-78
2022/05/21 11:18:05;;;;;;;5.97;4.90;;;;;;;24.62;42.85;100319.31;20825395;27;97954;-78
2022/05/21 11:28:25;;;;;;;7.85;5.07;;;;;;;24.67;42.54;100289.75;20820933;27;97125;-78
2022/05/21 11:38:38;;;;;;;5.20;4.60;;;;;;;24.72;42.50;100298.94;20815794;27;97228;-78
2022/05/21 11:48:40;;;;;;;5.50;4.43;;;;;;;24.79;42.23;100307.13;20810631;27;100070;-78
2022/05/21 11:59:11;;;;;;;5.72;5.05;;;;;;;24.82;42.24;100312.16;20802757;27;97546;-78
2022/05/21 12:09:29;;;;;;;5.20;4.70;;;;;;;24.89;41.94;100315.03;20820919;27;97612;-79
2022/05/21 12:19:49;;;;;;;5.25;4.35;;;;;;;24.92;42.19;100297.03;20818356;27;96833;-78
2022/05/21 12:29:58;;;;;;;4.45;4.00;;;;;;;24.98;41.89;100286.88;20821278;27;96869;-78
2022/05/21 12:40:01;;;;;;;4.60;4.20;;;;;;;25.05;41.69;100267.59;20814375;27;98321;-79
2022/05/21 12:50:19;;;;;;;4.38;3.97;;;;;;;25.09;42.03;100268.13;20812590;27;98910;-79
2022/05/21 13:00:23;;;;;;;4.45;3.88;;;;;;;25.12;41.92;100270.50;20797776;27;99944;-78
2022/05/21 13:10:27;;;;;;;5.28;3.75;;;;;;;25.15;41.54;100261.41;20814558;27;96883;-78
2022/05/21 13:20:47;;;;;;;4.18;3.47;;;;;;;25.21;41.40;100266.94;20816007;27;97335;-78
2022/05/21 13:30:49;;;;;;;3.38;3.03;;;;;;;25.27;41.30;100265.50;20806245;27;100534;-78
2022/05/21 13:40:54;;;;;;;3.85;3.13;;;;;;;25.33;41.36;100264.91;20816723;27;97299;-78
2022/05/21 13:50:56;;;;;;;3.67;2.90;;;;;;;25.41;41.08;100250.94;20820957;27;97384;-78
2022/05/21 14:00:58;;;;;;;3.30;3.00;;;;;;;25.45;41.12;100248.81;20795422;27;99358;-79
2022/05/21 14:11:13;;;;;;;2.92;2.63;;;;;;;25.51;40.80;100238.47;20815429;27;98187;-79
2022/05/21 14:21:25;;;;;;;3.00;2.70;;;;;;;25.57;40.72;100234.34;20812935;27;97904;-78
2022/05/21 14:31:40;;;;;;;2.95;2.65;;;;;;;25.62;40.50;100221.50;20816761;27;96987;-78
2022/05/21 14:41:45;;;;;;;3.28;2.42;;;;;;;25.64;41.02;100210.72;20827041;27;97613;-78
2022/05/21 15:02:16;;;;;;;2.65;2.30;;;;;;;25.79;40.03;100198.56;20830842;27;96924;-78
2022/05/21 15:12:16;;;;;;;3.55;2.30;;;;;;;25.86;39.74;100183.72;20826108;27;96820;-78
2022/05/21 15:22:20;;;;;;;2.37;2.17;;;;;;;25.92;39.65;100173.47;20808356;27;96988;-78
2022/05/21 15:32:20;;;;;;;2.20;2.00;;;;;;;26.05;39.35;100171.25;20815549;27;97728;-77
2022/05/21 15:42:22;;;;;;;2.00;1.90;;;;;;;26.29;39.02;100153.81;20812402;27;97166;-78
2022/05/21 15:52:30;;;;;;;2.00;1.80;;;;;;;26.33;38.43;100147.19;20801350;27;100590;-78
2022/05/21 16:02:31;;;;;;;2.15;1.80;;;;;;;26.21;38.88;100122.78;20796488;27;98568;-79
2022/05/21 16:12:32;;;;;;;;;;;;;;;25.96;39.18;100119.94;20801362;27;97426;-79
2022/05/21 16:22:33;;;;;;;1.80;1.70;;;;;;;25.92;39.54;100128.38;20825395;27;97194;-77
2022/05/21 16:32:33;;;;;;;2.07;1.90;;;;;;;25.87;39.48;100112.94;20796966;27;97813;-78
2022/05/21 16:42:34;;;;;;;1.50;1.40;;;;;;;25.78;39.60;100119.16;20819837;27;100150;-78
2022/05/21 16:52:36;;;;;;;1.50;1.40;;;;;;;25.79;40.04;100115.53;20794068;27;96961;-78
2022/05/21 17:02:37;;;;;;;1.52;1.42;;;;;;;25.72;40.03;100115.34;20816448;27;97185;-79
2022/05/21 17:12:39;;;;;;;2.20;1.67;;;;;;;25.66;39.72;100111.47;20811051;27;98744;-80
2022/05/21 17:22:40;;;;;;;2.70;1.73;;;;;;;25.61;40.09;100103.16;20824289;27;98353;-81
2022/05/21 17:32:48;;;;;;;3.75;1.85;;;;;;;25.70;39.46;100117.31;20792620;27;102480;-80
2022/05/21 17:42:50;;;;;;;14.77;2.03;;;;;;;25.73;39.67;100111.66;20781930;27;99807;-79
2022/05/21 17:52:52;;;;;;;4.70;1.67;;;;;;;25.64;34.97;100128.53;20794263;27;97556;-80
2022/05/21 18:02:55;;;;;;;4.65;1.10;;;;;;;25.52;32.10;100122.63;20784789;27;98139;-78
2022/05/21 18:12:56;;;;;;;3.03;1.00;;;;;;;25.46;31.12;100124.06;20792746;27;100303;-81
2022/05/21 18:22:56;;;;;;;2.37;0.97;;;;;;;25.41;30.97;100135.16;20789906;27;98061;-79
2022/05/21 18:32:58;;;;;;;3.08;1.35;;;;;;;25.37;30.99;100136.44;20799948;27;96918;-78
2022/05/21 18:42:58;;;;;;;4.20;1.20;;;;;;;25.30;30.59;100145.94;20813000;27;97317;-79
2022/05/21 18:52:59;;;;;;;3.55;1.42;;;;;;;25.21;30.91;100146.88;20786960;27;98608;-78
2022/05/21 19:02:59;;;;;;;4.15;1.13;;;;;;;25.15;30.31;100155.44;20736861;27;97743;-76
2022/05/21 19:13:02;;;;;;;2.60;1.08;;;;;;;25.03;30.34;100170.69;20763026;27;99796;-78
2022/05/21 19:23:02;;;;;;;5.95;1.20;;;;;;;24.93;30.36;100173.41;20782089;27;97383;-77
2022/05/21 19:33:03;;;;;;;1.25;1.15;;;;;;;24.78;29.78;100191.63;20772095;27;97936;-77
2022/05/21 19:43:04;;;;;;;4.15;1.20;;;;;;;24.68;29.70;100212.00;20802649;27;97022;-77
2022/05/21 19:53:04;;;;;;;2.75;1.25;;;;;;;24.58;30.11;100209.38;20798420;27;99362;-77
2022/05/21 20:03:05;;;;;;;3.55;1.40;;;;;;;24.41;29.72;100222.41;20780083;27;99584;-77
2022/05/21 20:13:06;;;;;;;1.65;1.27;;;;;;;24.40;30.04;100233.94;20790558;27;101931;-76
2022/05/21 20:23:07;;;;;;;3.10;1.60;;;;;;;24.31;30.01;100232.16;20796196;27;97801;-76
2022/05/21 20:33:08;;;;;;;2.40;1.38;;;;;;;24.18;30.22;100237.78;20794429;27;98360;-76
2022/05/21 20:43:08;;;;;;;3.03;1.40;;;;;;;24.12;30.42;100254.19;20803613;27;97749;-77
2022/05/21 20:53:09;;;;;;;2.07;1.30;;;;;;;24.04;30.51;100252.25;20808395;27;101250;-77
2022/05/21 21:03:09;;;;;;;2.55;1.30;;;;;;;23.99;30.82;100254.50;20787376;27;98683;-77
2022/05/21 21:13:10;;;;;;;1.70;1.00;;;;;;;23.87;31.18;100258.22;20792479;27;98446;-76
2022/05/21 21:23:11;;;;;;;2.90;1.30;;;;;;;23.79;31.24;100262.41;20787227;27;97952;-77
2022/05/21 21:33:12;;;;;;;2.20;1.38;;;;;;;23.75;31.69;100253.06;20789057;27;98226;-77
2022/05/21 21:43:14;;;;;;;5.38;1.42;;;;;;;23.70;32.15;100249.19;20784475;27;97135;-77
2022/05/21 21:53:14;;;;;;;1.70;1.20;;;;;;;23.63;31.97;100256.81;20794790;27;98450;-77
2022/05/21 22:03:15;;;;;;;5.30;1.58;;;;;;;23.60;32.04;100255.28;20784984;27;98671;-75
2022/05/21 22:13:16;;;;;;;6.38;1.70;;;;;;;23.52;32.46;100265.72;20786999;27;97430;-76
2022/05/21 22:23:17;;;;;;;1.67;1.10;;;;;;;23.59;32.15;100274.75;20760904;27;97660;-76
2022/05/21 22:33:18;;;;;;;2.75;1.45;;;;;;;23.45;32.52;100264.63;20787502;27;97031;-77
2022/05/21 22:43:19;;;;;;;2.45;1.33;;;;;;;23.45;32.55;100269.91;20766761;27;99443;-77
2022/05/21 22:53:19;;;;;;;3.53;1.20;;;;;;;23.40;32.84;100262.38;20795360;27;97141;-76
2022/05/21 23:03:20;;;;;;;3.90;1.30;;;;;;;23.31;33.13;100261.41;20791305;27;98773;-76
2022/05/21 23:13:20;;;;;;;1.40;1.25;;;;;;;23.27;33.35;100272.38;20781606;27;97850;-77
2022/05/21 23:23:27;;;;;;;3.13;1.20;;;;;;;23.17;33.62;100254.66;20801286;27;100635;-76
2022/05/21 23:33:32;;;;;;;2.67;1.23;;;;;;;23.10;33.39;100255.31;20791335;27;97632;-76
2022/05/21 23:43:32;;;;;;;1.75;1.15;;;;;;;23.06;33.17;100238.91;20804692;27;97325;-77
2022/05/21 23:53:35;;;;;;;2.35;1.23;;;;;;;23.01;33.15;100238.50;20782578;27;97765;-77
